RYR7SR EDSB-LEPA
Flight info
| Callsign | RYR7SR |
|---|---|
| Flight time | N/A |
| Altitude | 39000 |
| Route | STR1Z STR R11 OBORN R112 MIRGU DCT MOROK DCT GILIR DCT GEVEA DCT INCUS DCT BALSI DCT RETNO DCT TUPOX DCT MTG DCT DIVKO DCT VATIR DCT PIVUS DCT BODEQ DCT VERSO L129 LUNIK |
| Aircraft | B738/M-SDE3FGILRWY/SB1 |
Departure
| Time | N/A |
|---|---|
| Airport | Karlsruhe Baden-Baden Airport (EDSB) |
Arrival
| Time | 2026-05-04 20:55 |
|---|---|
| Airport | Palma de Mallorca Airport (LEPA) |
| Time | Latitude | Longitude | Altitude | Speed | Heading |
|---|---|---|---|---|---|
| 2026-05-04 20:03 | 43.76455 | 5.28904 | 38970 ft | 405 kts | 205° |
| 2026-05-04 20:03 | 43.71213 | 5.26091 | 38962 ft | 403 kts | 205° |
| 2026-05-04 20:04 | 43.65993 | 5.23295 | 38957 ft | 402 kts | 205° |
| 2026-05-04 20:04 | 43.60787 | 5.20511 | 38961 ft | 401 kts | 205° |
| 2026-05-04 20:05 | 43.55718 | 5.17805 | 38969 ft | 400 kts | 205° |
| 2026-05-04 20:05 | 43.50534 | 5.15042 | 38956 ft | 399 kts | 205° |
| 2026-05-04 20:06 | 43.45357 | 5.12287 | 38967 ft | 398 kts | 205° |
| 2026-05-04 20:06 | 43.40190 | 5.09540 | 38969 ft | 398 kts | 206° |
| 2026-05-04 20:07 | 43.35434 | 5.05811 | 38975 ft | 392 kts | 217° |
| 2026-05-04 20:07 | 43.30951 | 5.01519 | 38948 ft | 393 kts | 217° |
| 2026-05-04 20:08 | 43.26449 | 4.97250 | 38955 ft | 393 kts | 217° |
| 2026-05-04 20:08 | 43.21931 | 4.92996 | 38967 ft | 394 kts | 217° |
| 2026-05-04 20:09 | 43.17418 | 4.88760 | 38963 ft | 395 kts | 217° |
| 2026-05-04 20:09 | 43.12871 | 4.84500 | 38957 ft | 396 kts | 217° |
| 2026-05-04 20:10 | 43.08319 | 4.80241 | 38953 ft | 397 kts | 217° |
| 2026-05-04 20:10 | 43.03665 | 4.76153 | 38957 ft | 399 kts | 212° |
| 2026-05-04 20:11 | 42.98801 | 4.72481 | 38952 ft | 400 kts | 211° |
| 2026-05-04 20:11 | 42.93916 | 4.68824 | 38952 ft | 401 kts | 212° |
| 2026-05-04 20:12 | 42.89034 | 4.65152 | 38943 ft | 401 kts | 212° |
| 2026-05-04 20:12 | 42.84153 | 4.61473 | 38948 ft | 401 kts | 212° |
| 2026-05-04 20:13 | 42.79266 | 4.57791 | 38946 ft | 401 kts | 212° |
| 2026-05-04 20:13 | 42.74382 | 4.54118 | 38951 ft | 401 kts | 212° |
| 2026-05-04 20:14 | 42.69491 | 4.50447 | 38943 ft | 401 kts | 212° |
| 2026-05-04 20:14 | 42.64632 | 4.46806 | 38937 ft | 401 kts | 212° |
| 2026-05-04 20:15 | 42.59750 | 4.43155 | 38937 ft | 401 kts | 212° |
| 2026-05-04 20:15 | 42.54867 | 4.39510 | 38932 ft | 400 kts | 212° |
| 2026-05-04 20:16 | 42.49992 | 4.35876 | 38922 ft | 399 kts | 212° |
| 2026-05-04 20:16 | 42.45124 | 4.32255 | 38929 ft | 399 kts | 212° |
| 2026-05-04 20:17 | 42.40259 | 4.28642 | 38931 ft | 399 kts | 212° |
| 2026-05-04 20:17 | 42.35396 | 4.25037 | 38927 ft | 399 kts | 212° |
| 2026-05-04 20:18 | 42.30535 | 4.21439 | 38918 ft | 398 kts | 212° |
| 2026-05-04 20:18 | 42.25671 | 4.17846 | 38929 ft | 399 kts | 211° |
| 2026-05-04 20:19 | 42.20802 | 4.14254 | 38929 ft | 399 kts | 211° |
| 2026-05-04 20:19 | 42.15927 | 4.10665 | 38924 ft | 400 kts | 211° |
| 2026-05-04 20:20 | 42.11046 | 4.07074 | 38917 ft | 400 kts | 212° |
| 2026-05-04 20:20 | 42.06158 | 4.03481 | 38926 ft | 400 kts | 212° |
| 2026-05-04 20:21 | 42.01268 | 3.99892 | 38928 ft | 401 kts | 212° |
| 2026-05-04 20:21 | 41.93899 | 3.94555 | 38923 ft | 403 kts | 207° |
| 2026-05-04 20:22 | 41.88493 | 3.92390 | 38930 ft | 410 kts | 194° |
| 2026-05-04 20:22 | 41.82859 | 3.91136 | 38932 ft | 411 kts | 194° |
| 2026-05-04 20:23 | 41.77223 | 3.89858 | 38931 ft | 411 kts | 194° |
| 2026-05-04 20:23 | 41.71627 | 3.88562 | 38932 ft | 411 kts | 195° |
| 2026-05-04 20:24 | 41.65991 | 3.87251 | 38930 ft | 411 kts | 195° |
| 2026-05-04 20:24 | 41.60315 | 3.85933 | 38381 ft | 417 kts | 195° |
| 2026-05-04 20:25 | 41.57475 | 3.85281 | 37882 ft | 413 kts | 194° |
| 2026-05-04 20:25 | 41.54649 | 3.84638 | 37367 ft | 410 kts | 194° |
| 2026-05-04 20:25 | 41.51858 | 3.84004 | 37007 ft | 404 kts | 194° |
| 2026-05-04 20:25 | 41.49100 | 3.83378 | 36572 ft | 400 kts | 195° |
| 2026-05-04 20:26 | 41.46386 | 3.82761 | 36229 ft | 394 kts | 195° |
| 2026-05-04 20:26 | 41.43694 | 3.82148 | 35846 ft | 390 kts | 195° |
| 2026-05-04 20:26 | 41.41038 | 3.81543 | 35483 ft | 385 kts | 195° |
| 2026-05-04 20:26 | 41.38411 | 3.80945 | 35114 ft | 382 kts | 195° |
| 2026-05-04 20:27 | 41.35804 | 3.80351 | 34752 ft | 378 kts | 195° |
| 2026-05-04 20:27 | 41.33220 | 3.79764 | 34379 ft | 375 kts | 195° |
| 2026-05-04 20:27 | 41.30658 | 3.79181 | 34006 ft | 372 kts | 195° |
| 2026-05-04 20:27 | 41.28116 | 3.78604 | 33569 ft | 369 kts | 195° |
| 2026-05-04 20:28 | 41.25636 | 3.78042 | 33214 ft | 364 kts | 195° |
| 2026-05-04 20:28 | 41.23115 | 3.77470 | 32833 ft | 361 kts | 195° |
| 2026-05-04 20:28 | 41.20688 | 3.76921 | 32487 ft | 357 kts | 195° |
| 2026-05-04 20:28 | 41.18252 | 3.76370 | 32133 ft | 354 kts | 195° |
| 2026-05-04 20:29 | 41.15838 | 3.75797 | 31773 ft | 349 kts | 198° |
| 2026-05-04 20:29 | 41.13550 | 3.74866 | 31500 ft | 339 kts | 205° |
| 2026-05-04 20:29 | 41.11373 | 3.73737 | 31252 ft | 334 kts | 205° |
| 2026-05-04 20:29 | 41.09203 | 3.72599 | 31014 ft | 337 kts | 205° |
| 2026-05-04 20:30 | 41.07038 | 3.71465 | 30720 ft | 333 kts | 206° |
| 2026-05-04 20:30 | 41.04894 | 3.70348 | 30418 ft | 330 kts | 205° |
| 2026-05-04 20:30 | 41.02764 | 3.69241 | 30086 ft | 328 kts | 205° |
| 2026-05-04 20:30 | 41.00643 | 3.68143 | 29691 ft | 326 kts | 205° |
| 2026-05-04 20:31 | 40.98538 | 3.67056 | 29360 ft | 323 kts | 205° |
| 2026-05-04 20:31 | 40.96456 | 3.65982 | 29000 ft | 320 kts | 205° |
| 2026-05-04 20:31 | 40.94391 | 3.64919 | 28646 ft | 317 kts | 205° |
| 2026-05-04 20:31 | 40.92345 | 3.63867 | 28316 ft | 314 kts | 205° |
| 2026-05-04 20:32 | 40.90315 | 3.62823 | 27959 ft | 312 kts | 205° |
| 2026-05-04 20:32 | 40.88300 | 3.61788 | 27620 ft | 310 kts | 205° |
| 2026-05-04 20:32 | 40.86296 | 3.60760 | 27284 ft | 308 kts | 205° |
| 2026-05-04 20:32 | 40.84306 | 3.59739 | 26933 ft | 306 kts | 206° |
| 2026-05-04 20:33 | 40.82336 | 3.58729 | 26623 ft | 303 kts | 206° |
| 2026-05-04 20:33 | 40.80375 | 3.57724 | 26285 ft | 302 kts | 206° |
| 2026-05-04 20:33 | 40.78424 | 3.56725 | 25952 ft | 300 kts | 206° |
| 2026-05-04 20:33 | 40.76481 | 3.55731 | 25634 ft | 299 kts | 206° |
| 2026-05-04 20:34 | 40.74548 | 3.54743 | 25293 ft | 297 kts | 206° |
| 2026-05-04 20:34 | 40.72621 | 3.53758 | 24986 ft | 296 kts | 206° |
| 2026-05-04 20:34 | 40.70700 | 3.52777 | 24665 ft | 295 kts | 206° |
| 2026-05-04 20:34 | 40.68788 | 3.51801 | 24344 ft | 295 kts | 206° |
| 2026-05-04 20:35 | 40.66876 | 3.50825 | 24030 ft | 294 kts | 206° |
| 2026-05-04 20:35 | 40.64972 | 3.49854 | 23711 ft | 294 kts | 206° |
| 2026-05-04 20:35 | 40.63068 | 3.48884 | 23365 ft | 293 kts | 206° |
| 2026-05-04 20:35 | 40.61168 | 3.47917 | 22997 ft | 292 kts | 206° |
| 2026-05-04 20:36 | 40.59275 | 3.46953 | 22668 ft | 291 kts | 206° |
| 2026-05-04 20:36 | 40.57392 | 3.45996 | 22338 ft | 289 kts | 206° |
| 2026-05-04 20:36 | 40.55523 | 3.45047 | 22028 ft | 287 kts | 206° |
| 2026-05-04 20:36 | 40.53663 | 3.44102 | 21703 ft | 286 kts | 205° |
| 2026-05-04 20:37 | 40.51811 | 3.43161 | 21386 ft | 285 kts | 205° |
| 2026-05-04 20:37 | 40.49965 | 3.42224 | 21067 ft | 284 kts | 205° |
| 2026-05-04 20:37 | 40.48128 | 3.41293 | 20762 ft | 283 kts | 205° |
| 2026-05-04 20:37 | 40.46318 | 3.40376 | 20453 ft | 282 kts | 205° |
| 2026-05-04 20:38 | 40.44455 | 3.39475 | 20132 ft | 283 kts | 199° |
| 2026-05-04 20:38 | 40.42459 | 3.39189 | 19571 ft | 298 kts | 185° |
| 2026-05-04 20:38 | 40.40376 | 3.39300 | 19178 ft | 301 kts | 183° |
| 2026-05-04 20:38 | 40.38275 | 3.39448 | 18845 ft | 302 kts | 183° |
| 2026-05-04 20:39 | 40.36209 | 3.39596 | 18523 ft | 301 kts | 183° |
| 2026-05-04 20:39 | 40.34115 | 3.39739 | 18196 ft | 301 kts | 183° |
| 2026-05-04 20:39 | 40.32023 | 3.39874 | 17835 ft | 301 kts | 183° |
| 2026-05-04 20:39 | 40.29937 | 3.40004 | 17494 ft | 300 kts | 183° |
| 2026-05-04 20:40 | 40.27859 | 3.40131 | 17166 ft | 298 kts | 183° |
| 2026-05-04 20:40 | 40.25788 | 3.40254 | 16848 ft | 297 kts | 183° |
| 2026-05-04 20:40 | 40.23760 | 3.40094 | 16496 ft | 289 kts | 200° |
| 2026-05-04 20:40 | 40.21910 | 3.39164 | 16198 ft | 284 kts | 207° |
| 2026-05-04 20:41 | 40.20118 | 3.38097 | 15862 ft | 282 kts | 208° |
| 2026-05-04 20:41 | 40.18337 | 3.37009 | 15509 ft | 283 kts | 208° |
| 2026-05-04 20:41 | 40.16555 | 3.35921 | 15207 ft | 282 kts | 208° |
| 2026-05-04 20:41 | 40.14781 | 3.34844 | 14923 ft | 280 kts | 208° |
| 2026-05-04 20:42 | 40.13016 | 3.33778 | 14632 ft | 279 kts | 208° |
| 2026-05-04 20:42 | 40.11254 | 3.32718 | 14338 ft | 278 kts | 208° |
| 2026-05-04 20:42 | 40.09499 | 3.31666 | 14045 ft | 277 kts | 207° |
| 2026-05-04 20:42 | 40.07750 | 3.30619 | 13765 ft | 276 kts | 207° |
| 2026-05-04 20:43 | 40.06004 | 3.29576 | 13457 ft | 275 kts | 207° |
| 2026-05-04 20:43 | 40.04268 | 3.28541 | 13161 ft | 274 kts | 207° |
| 2026-05-04 20:43 | 40.02546 | 3.27516 | 12921 ft | 270 kts | 207° |
| 2026-05-04 20:43 | 40.00844 | 3.26503 | 12692 ft | 267 kts | 207° |
| 2026-05-04 20:44 | 39.99165 | 3.25505 | 12443 ft | 265 kts | 207° |
| 2026-05-04 20:44 | 39.97492 | 3.24510 | 12143 ft | 264 kts | 208° |
| 2026-05-04 20:44 | 39.95821 | 3.23517 | 11852 ft | 264 kts | 208° |
| 2026-05-04 20:44 | 39.94156 | 3.22528 | 11576 ft | 263 kts | 208° |
| 2026-05-04 20:45 | 39.92495 | 3.21543 | 11321 ft | 261 kts | 208° |
| 2026-05-04 20:45 | 39.90868 | 3.20579 | 11231 ft | 251 kts | 208° |
| 2026-05-04 20:45 | 39.89318 | 3.19663 | 11115 ft | 239 kts | 208° |
| 2026-05-04 20:45 | 39.87818 | 3.18775 | 10849 ft | 235 kts | 208° |
| 2026-05-04 20:46 | 39.86352 | 3.17909 | 10575 ft | 232 kts | 208° |
| 2026-05-04 20:46 | 39.84872 | 3.17030 | 10158 ft | 235 kts | 208° |
| 2026-05-04 20:46 | 39.83390 | 3.16151 | 9801 ft | 234 kts | 208° |
| 2026-05-04 20:46 | 39.81912 | 3.15276 | 9401 ft | 233 kts | 208° |
| 2026-05-04 20:47 | 39.80438 | 3.14404 | 9004 ft | 232 kts | 208° |
| 2026-05-04 20:47 | 39.78972 | 3.13537 | 8592 ft | 231 kts | 208° |
| 2026-05-04 20:47 | 39.77506 | 3.12671 | 8160 ft | 231 kts | 208° |
| 2026-05-04 20:47 | 39.76066 | 3.11821 | 7752 ft | 230 kts | 208° |
| 2026-05-04 20:48 | 39.74625 | 3.10972 | 7431 ft | 226 kts | 208° |
| 2026-05-04 20:48 | 39.73194 | 3.10129 | 7029 ft | 226 kts | 208° |
| 2026-05-04 20:48 | 39.71766 | 3.09285 | 6661 ft | 224 kts | 210° |
| 2026-05-04 20:48 | 39.70596 | 3.08034 | 6224 ft | 218 kts | 239° |
| 2026-05-04 20:49 | 39.70101 | 3.06882 | 5999 ft | 215 kts | 241° |
| 2026-05-04 20:49 | 39.69320 | 3.05236 | 5616 ft | 214 kts | 238° |
| 2026-05-04 20:49 | 39.68516 | 3.03588 | 5090 ft | 219 kts | 239° |
| 2026-05-04 20:49 | 39.67701 | 3.01894 | 4555 ft | 224 kts | 239° |
| 2026-05-04 20:50 | 39.66911 | 3.00234 | 4250 ft | 214 kts | 239° |
| 2026-05-04 20:50 | 39.66141 | 2.98609 | 3962 ft | 204 kts | 239° |
| 2026-05-04 20:50 | 39.65421 | 2.97087 | 3686 ft | 197 kts | 239° |
| 2026-05-04 20:50 | 39.64716 | 2.95597 | 3435 ft | 190 kts | 239° |
| 2026-05-04 20:51 | 39.64034 | 2.94155 | 3199 ft | 185 kts | 239° |
| 2026-05-04 20:51 | 39.63368 | 2.92749 | 2935 ft | 180 kts | 239° |
| 2026-05-04 20:51 | 39.62724 | 2.91386 | 2692 ft | 174 kts | 239° |
| 2026-05-04 20:51 | 39.62102 | 2.90070 | 2480 ft | 169 kts | 239° |
| 2026-05-04 20:52 | 39.61495 | 2.88786 | 2248 ft | 164 kts | 238° |
| 2026-05-04 20:52 | 39.60921 | 2.87573 | 2054 ft | 150 kts | 238° |
| 2026-05-04 20:52 | 39.60405 | 2.86480 | 1864 ft | 136 kts | 237° |
| 2026-05-04 20:52 | 39.59934 | 2.85472 | 1656 ft | 127 kts | 237° |
| 2026-05-04 20:53 | 39.59474 | 2.84489 | 1502 ft | 127 kts | 238° |
| 2026-05-04 20:53 | 39.59010 | 2.83511 | 1309 ft | 127 kts | 237° |
| 2026-05-04 20:53 | 39.58544 | 2.82537 | 1175 ft | 129 kts | 237° |
| 2026-05-04 20:53 | 39.58068 | 2.81531 | 997 ft | 133 kts | 238° |
| 2026-05-04 20:54 | 39.57579 | 2.80492 | 827 ft | 134 kts | 237° |
| 2026-05-04 20:54 | 39.57082 | 2.79448 | 646 ft | 134 kts | 238° |
| 2026-05-04 20:54 | 39.56604 | 2.78421 | 464 ft | 133 kts | 238° |
| 2026-05-04 20:54 | 39.56118 | 2.77392 | 298 ft | 135 kts | 238° |
| 2026-05-04 20:55 | 39.55631 | 2.76354 | 108 ft | 135 kts | 238° |
| 2026-05-04 20:55 | 39.55157 | 2.75349 | 30 ft | 119 kts | 238° |
| 2026-05-04 20:55 | 39.54804 | 2.74602 | 29 ft | 75 kts | 238° |
| 2026-05-04 20:55 | 39.54631 | 2.74235 | 29 ft | 27 kts | 239° |
| 2026-05-04 20:56 | 39.54565 | 2.74043 | 29 ft | 23 kts | 259° |
| 2026-05-04 20:56 | 39.54551 | 2.73853 | 29 ft | 15 kts | 269° |
| 2026-05-04 20:56 | 39.54550 | 2.73786 | 29 ft | 3 kts | 270° |
| 2026-05-04 20:56 | 39.54550 | 2.73763 | 29 ft | 2 kts | 270° |
| 2026-05-04 20:57 | 39.54551 | 2.73743 | 29 ft | 2 kts | 271° |
| 2026-05-04 20:57 | 39.54557 | 2.73712 | 29 ft | 6 kts | 294° |
| 2026-05-04 20:57 | 39.54577 | 2.73691 | 29 ft | 2 kts | 8° |
| 2026-05-04 20:57 | 39.54597 | 2.73718 | 29 ft | 6 kts | 54° |
| 2026-05-04 20:58 | 39.54625 | 2.73777 | 29 ft | 10 kts | 58° |
| 2026-05-04 20:58 | 39.54667 | 2.73866 | 29 ft | 13 kts | 58° |
| 2026-05-04 20:58 | 39.54718 | 2.73975 | 29 ft | 15 kts | 58° |
| 2026-05-04 20:58 | 39.54771 | 2.74086 | 29 ft | 13 kts | 58° |
| 2026-05-04 20:59 | 39.54815 | 2.74128 | 29 ft | 8 kts | 1° |
| 2026-05-04 20:59 | 39.54863 | 2.74100 | 29 ft | 8 kts | 328° |
| 2026-05-04 20:59 | 39.54909 | 2.74064 | 29 ft | 8 kts | 328° |
| 2026-05-04 20:59 | 39.54958 | 2.74025 | 29 ft | 8 kts | 328° |
| 2026-05-04 21:00 | 39.55012 | 2.73982 | 29 ft | 10 kts | 329° |
| 2026-05-04 21:00 | 39.55083 | 2.73927 | 29 ft | 14 kts | 329° |
| 2026-05-04 21:00 | 39.55165 | 2.73862 | 29 ft | 12 kts | 328° |
| 2026-05-04 21:00 | 39.55182 | 2.73817 | 29 ft | 5 kts | 254° |
| 2026-05-04 21:01 | 39.55167 | 2.73769 | 29 ft | 6 kts | 268° |
| 2026-05-04 21:01 | 39.55182 | 2.73722 | 29 ft | 6 kts | 278° |
| 2026-05-04 21:01 | 39.55169 | 2.73668 | 29 ft | 7 kts | 242° |
| 2026-05-04 21:01 | 39.55141 | 2.73609 | 29 ft | 8 kts | 238° |
| 2026-05-04 21:02 | 39.55111 | 2.73548 | 29 ft | 8 kts | 238° |
| 2026-05-04 21:02 | 39.55084 | 2.73528 | 29 ft | 4 kts | 174° |
| 2026-05-04 21:02 | 39.55058 | 2.73536 | 29 ft | 2 kts | 163° |
| 2026-05-04 21:02 | 39.55052 | 2.73539 | 29 ft | 0 kts | 163° |